Nearby METAR Reports

Actuele Vliegveldwaarnemingen NL (METAR).Zie KNMI uitleg METAR hier

EHAM - Amsterdam/Schiph, Netherlands
Distance from station: ONO 18km
Updated: 22/11/2017 20:55
Helder
Helder
 Wind van Z
Wind: Z 30 km/h
Temperatuur: 10°C
Wind Chill: 7°C
Dauwpunt: 5°C
Vochtigheid: 71%
Barometer: 998 hPa
Overzicht: Helder
Visibility: greater than 10 km
2017/11/22 19:55 EHAM 221955Z 18016KT CAVOK 10/05 Q0998 NOSIG
EHKD - DE KOOY/DE KOOY
Updated: 22/11/2017 20:55
Helder
Helder
 Wind van Z
Wind: Z 31 km/h
Temperatuur: 10°C
Wind Chill: 7°C
Dauwpunt: 5°C
Vochtigheid: 71%
Barometer: 996 hPa
Clouds: Helder
Visibility: 10 km
2017/11/22 19:55 EHKD 221955Z AUTO 18017KT 9999 NCD 10/05 Q0996 BLU
 
EHLW - LEEUWARDEN/LEEUWARDEN
Updated: 22/11/2017 20:55
Helder
Helder
 Wind van Z
Wind: Z 26 km/h
Temperatuur: 10°C
Wind Chill: 7°C
Dauwpunt: 6°C
Vochtigheid: 76%
Barometer: 997 hPa
Clouds: Helder
Visibility: 10 km
2017/11/22 19:55 EHLW 221955Z AUTO 18014KT 140V220 9999 NCD 10/06 Q0997 BLU
EHVK - VOLKEL/VOLKEL
Updated: 22/11/2017 20:55
Helder
Helder
 Wind van Z
Wind: Z 22 km/h
Temperatuur: 11°C
Dauwpunt: 4°C
Vochtigheid: 62%
Barometer: 1002 hPa
Clouds: Helder
Visibility: 10 km
2017/11/22 19:55 EHVK 221955Z AUTO 19012KT 150V230 9999 NCD 11/04 Q1002 BLU
 
EHFS - VLISSINGEN
Updated: 22/11/2017 20:55
Helder
Helder
 Wind van Z
Wind: Z 46 km/h
Temperatuur: 12°C
Dauwpunt: 6°C
Vochtigheid: 67%
Barometer: 999 hPa
Clouds: Helder
Visibility: 10 km
2017/11/22 19:55 EHFS 221955Z AUTO 19025KT 9999 NCD 12/06 Q0999
EHEH - EINDHOVEN/EINDHOVEN
Updated: 22/11/2017 20:55
Few Clouds
Few Clouds
 Wind van Z
Wind: Z 20 km/h
Temperatuur: 10°C
Wind Chill: 7°C
Dauwpunt: 4°C
Vochtigheid: 67%
Barometer: 1002 hPa
Clouds: Few Clouds
Visibility: 10 km
Cloud details: Few Clouds 3962 m
2017/11/22 19:55 EHEH 221955Z AUTO 19011KT 160V220 9999 FEW130 10/04 Q1002 BLU 19014G24KT CAVOK
 
EHGR - GILZE-RIJEN/GILZE-RIJEN
Updated: 22/11/2017 20:55
Helder
Helder
 Wind van Z
Wind: Z 26 km/h
Temperatuur: 10°C
Wind Chill: 7°C
Dauwpunt: 4°C
Vochtigheid: 67%
Barometer: 1001 hPa
Clouds: Helder
Visibility: 10 km
2017/11/22 19:55 EHGR 221955Z AUTO 18014KT 130V210 9999 NCD 10/04 Q1001 BLU 18015KT CAVOK
EHDL - ARNHEM/DEELEN
Updated: 22/11/2017 20:55
Helder
Helder
 Wind van Z
Wind: Z 22 km/h
Temperatuur: 10°C
Wind Chill: 7°C
Dauwpunt: 5°C
Vochtigheid: 71%
Barometer: 1001 hPa
Clouds: Helder
Visibility: 10 km
2017/11/22 19:55 EHDL 221955Z AUTO 17012KT 130V230 9999 NCD 10/05 Q1001 BLU
 
EHBK - MAASTRICHT/MAASTRICHT-AACHEN
Updated: 22/11/2017 20:55
Helder
Helder
 Wind van Z
Wind: Z 22 km/h
Temperatuur: 10°C
Wind Chill: 7°C
Dauwpunt: 3°C
Vochtigheid: 62%
Barometer: 1003 hPa
Clouds: Helder
Visibility: 10 km
2017/11/22 19:55 EHBK 221955Z AUTO 18012KT 150V210 9999 NCD 10/03 Q1003 NOSIG